createdAt,value
2023-03-04T00:01:37.324Z,97.94
2023-03-04T00:04:10.559Z,97.84
2023-03-04T00:06:42.836Z,97.93
2023-03-04T00:09:15.950Z,98.50
2023-03-04T00:11:49.337Z,98.42
2023-03-04T00:14:21.848Z,97.77
2023-03-04T00:16:54.157Z,97.88
2023-03-04T00:19:26.461Z,98.19
2023-03-04T00:21:58.897Z,98.49
2023-03-04T00:24:32.591Z,98.35
2023-03-04T00:27:05.071Z,98.35
2023-03-04T00:29:37.804Z,98.28
2023-03-04T00:32:11.715Z,98.29
2023-03-04T00:34:44.179Z,98.13
2023-03-04T00:37:16.815Z,98.72
2023-03-04T00:39:50.192Z,99.04
2023-03-04T00:42:23.283Z,98.96
2023-03-04T00:44:55.981Z,98.96
2023-03-04T00:47:28.489Z,98.80
2023-03-04T00:50:01.958Z,99.38
2023-03-04T00:52:34.973Z,98.96
2023-03-04T00:55:09.447Z,98.48
2023-03-04T00:57:42.648Z,99.07
2023-03-04T01:00:15.749Z,99.11
2023-03-04T01:02:48.433Z,98.80
2023-03-04T01:05:21.613Z,99.15
2023-03-04T01:07:54.178Z,98.77
2023-03-04T01:10:27.745Z,99.01
2023-03-04T01:13:00.657Z,98.49
2023-03-04T01:15:34.632Z,98.55
2023-03-04T01:18:07.837Z,98.55
2023-03-04T01:20:40.747Z,98.45
2023-03-04T01:23:13.047Z,98.19
2023-03-04T01:25:46.684Z,98.37
2023-03-04T01:28:19.399Z,98.50
2023-03-04T01:30:53.636Z,98.25
2023-03-04T01:33:26.190Z,98.69
2023-03-04T01:35:59.150Z,98.64
2023-03-04T01:38:31.626Z,98.59
2023-03-04T01:41:04.310Z,98.60
2023-03-04T01:43:38.623Z,98.48
2023-03-04T01:46:14.589Z,98.58
2023-03-04T01:48:47.803Z,98.71
2023-03-04T01:51:21.221Z,98.77
2023-03-04T01:53:55.095Z,98.87
2023-03-04T01:56:31.242Z,99.07
2023-03-04T01:59:19.017Z,99.22
2023-03-04T02:01:57.829Z,99.65
2023-03-04T02:04:34.515Z,99.71
2023-03-04T02:07:07.952Z,100.00
2023-03-04T02:09:41.231Z,100.00
2023-03-04T02:12:13.818Z,100.00
2023-03-04T02:14:46.579Z,100.00
2023-03-04T02:17:21.270Z,100.00
2023-03-04T02:20:28.313Z,100.00
2023-03-04T02:23:14.314Z,100.00
2023-03-04T02:26:06.432Z,100.00
2023-03-04T02:28:38.951Z,100.00
2023-03-04T02:31:28.203Z,100.00
2023-03-04T02:34:06.900Z,100.00
2023-03-04T02:36:40.113Z,100.00
2023-03-04T02:39:28.069Z,100.00
2023-03-04T02:42:01.112Z,100.00
2023-03-04T02:44:38.012Z,100.00
2023-03-04T02:47:12.423Z,100.00
2023-03-04T02:49:45.558Z,100.00
2023-03-04T02:52:25.445Z,100.00
2023-03-04T02:54:58.350Z,100.00
2023-03-04T02:57:30.957Z,100.00
2023-03-04T03:00:03.485Z,100.00
2023-03-04T03:02:36.666Z,100.00
2023-03-04T03:05:09.677Z,100.00
2023-03-04T03:07:42.130Z,100.00
2023-03-04T03:10:15.664Z,100.00
2023-03-04T03:12:48.486Z,100.00
2023-03-04T03:15:22.026Z,100.00
2023-03-04T03:17:55.172Z,100.00
2023-03-04T03:20:27.938Z,100.00
2023-03-04T03:23:00.789Z,100.00
2023-03-04T03:25:33.438Z,100.00
2023-03-04T03:28:06.031Z,100.00
2023-03-04T03:30:39.145Z,100.00
2023-03-04T03:33:11.797Z,100.00
2023-03-04T03:35:45.570Z,100.00
2023-03-04T03:38:18.620Z,100.00
2023-03-04T03:40:51.781Z,100.00
2023-03-04T03:43:24.398Z,100.00
2023-03-04T03:45:57.101Z,100.00
2023-03-04T03:48:30.390Z,100.00
2023-03-04T03:51:23.944Z,100.00
2023-03-04T03:53:57.451Z,100.00
2023-03-04T03:56:30.020Z,100.00
2023-03-04T03:59:02.715Z,100.00
2023-03-04T04:01:35.444Z,100.00
2023-03-04T04:04:08.021Z,100.00
2023-03-04T04:06:40.643Z,100.00
2023-03-04T04:09:13.077Z,100.00
2023-03-04T04:11:46.290Z,100.00
2023-03-04T04:14:19.205Z,100.00
2023-03-04T04:16:52.430Z,100.00
2023-03-04T04:19:25.038Z,100.00
2023-03-04T04:21:58.213Z,100.00
2023-03-04T04:24:30.980Z,100.00
2023-03-04T04:27:04.679Z,100.00
2023-03-04T04:29:37.872Z,100.00
2023-03-04T04:32:12.207Z,100.00
2023-03-04T04:34:45.226Z,100.00
2023-03-04T04:37:17.630Z,100.00
2023-03-04T04:39:51.965Z,100.00
2023-03-04T04:42:24.920Z,100.00
2023-03-04T04:44:58.127Z,100.00
2023-03-04T04:47:30.605Z,100.00
2023-03-04T04:50:03.316Z,100.00
2023-03-04T04:52:36.488Z,100.00
2023-03-04T04:55:09.307Z,100.00
2023-03-04T04:57:42.520Z,100.00
2023-03-04T05:00:15.584Z,100.00
2023-03-04T05:02:48.817Z,100.00
2023-03-04T05:05:21.774Z,100.00
2023-03-04T05:07:55.633Z,100.00
2023-03-04T05:10:28.059Z,100.00
2023-03-04T05:13:00.560Z,100.00
2023-03-04T05:15:34.164Z,100.00
2023-03-04T05:18:19.338Z,100.00
2023-03-04T05:20:55.061Z,100.00
2023-03-04T05:23:27.874Z,100.00
2023-03-04T05:26:00.274Z,100.00
2023-03-04T05:28:32.820Z,100.00
2023-03-04T05:31:05.986Z,100.00
2023-03-04T05:33:38.797Z,100.00
2023-03-04T05:36:11.417Z,100.00
2023-03-04T05:38:44.364Z,99.90
2023-03-04T05:41:18.659Z,99.92
2023-03-04T05:43:52.040Z,100.00
2023-03-04T05:46:26.068Z,100.00
2023-03-04T05:48:58.534Z,99.41
2023-03-04T05:51:31.245Z,98.89
2023-03-04T05:54:03.866Z,98.27
2023-03-04T05:56:37.291Z,98.08
2023-03-04T05:59:09.838Z,98.08
2023-03-04T06:01:42.803Z,97.10
2023-03-04T06:04:15.418Z,96.62
2023-03-04T06:06:48.866Z,94.87
2023-03-04T06:09:22.531Z,92.32
2023-03-04T06:11:55.409Z,90.55
2023-03-04T06:14:28.883Z,90.44
2023-03-04T06:17:01.798Z,89.88
2023-03-04T06:19:34.242Z,89.81
2023-03-04T06:22:07.834Z,90.32
2023-03-04T06:24:40.727Z,90.61
2023-03-04T06:27:14.031Z,90.94
2023-03-04T06:29:46.813Z,91.17
2023-03-04T06:32:19.674Z,91.21
2023-03-04T06:34:52.413Z,90.86
2023-03-04T06:37:25.288Z,91.18
2023-03-04T06:39:58.352Z,90.97
2023-03-04T06:42:30.781Z,90.65
2023-03-04T06:45:03.711Z,90.67
2023-03-04T06:47:36.891Z,90.77
2023-03-04T06:50:12.215Z,90.56
2023-03-04T06:52:44.573Z,90.51
2023-03-04T06:55:18.570Z,90.08
2023-03-04T06:57:51.756Z,89.60
2023-03-04T07:00:24.777Z,89.28
2023-03-04T07:02:57.299Z,89.15
2023-03-04T07:05:30.879Z,89.54
2023-03-04T07:08:04.120Z,89.58
2023-03-04T07:10:37.274Z,88.16
2023-03-04T07:13:10.960Z,87.64
2023-03-04T07:15:44.036Z,86.91
2023-03-04T07:18:17.023Z,86.34
2023-03-04T07:20:51.107Z,86.04
2023-03-04T07:23:24.312Z,86.68
2023-03-04T07:25:59.366Z,85.92
2023-03-04T07:28:31.784Z,85.41
2023-03-04T07:31:32.893Z,85.06
2023-03-04T07:34:08.618Z,84.94
2023-03-04T07:36:41.901Z,84.98
2023-03-04T07:39:14.858Z,84.71
2023-03-04T07:41:48.384Z,84.19
2023-03-04T07:44:21.531Z,83.74
2023-03-04T07:46:54.475Z,83.46
2023-03-04T07:49:26.974Z,84.22
2023-03-04T07:51:59.841Z,83.86
2023-03-04T07:54:32.189Z,83.58
2023-03-04T07:57:04.612Z,83.23
2023-03-04T07:59:37.589Z,83.37
2023-03-04T08:02:11.569Z,82.66
2023-03-04T08:04:44.655Z,82.40
2023-03-04T08:07:17.323Z,82.19
2023-03-04T08:09:50.531Z,81.96
2023-03-04T08:12:25.087Z,82.01
2023-03-04T08:14:57.665Z,81.24
2023-03-04T08:17:31.472Z,81.32
2023-03-04T08:20:04.421Z,81.49
2023-03-04T08:22:37.666Z,81.61
2023-03-04T08:25:11.152Z,81.72
2023-03-04T08:27:44.859Z,81.75
2023-03-04T08:30:18.752Z,81.73
2023-03-04T08:32:53.054Z,81.31
2023-03-04T08:35:25.586Z,81.13
2023-03-04T08:37:59.693Z,80.98
2023-03-04T08:40:33.558Z,79.78
2023-03-04T08:43:06.744Z,79.56
2023-03-04T08:45:40.411Z,79.41
2023-03-04T08:48:13.576Z,78.88
2023-03-04T08:50:47.567Z,78.93
2023-03-04T08:53:20.509Z,79.72
2023-03-04T08:55:54.323Z,79.33
2023-03-04T08:58:26.926Z,78.79
2023-03-04T09:01:01.440Z,78.50
2023-03-04T09:03:34.609Z,78.08
2023-03-04T09:06:08.088Z,77.51
2023-03-04T09:08:41.122Z,76.77
2023-03-04T09:11:14.469Z,75.91
2023-03-04T09:13:47.629Z,76.01
2023-03-04T09:16:21.787Z,76.28
2023-03-04T09:18:54.112Z,76.05
2023-03-04T09:21:28.043Z,74.51
2023-03-04T09:24:00.503Z,72.89
2023-03-04T09:26:33.330Z,71.91
2023-03-04T09:29:06.754Z,71.00
2023-03-04T09:31:39.747Z,70.96
2023-03-04T09:34:12.600Z,70.73
2023-03-04T09:36:45.320Z,71.48
2023-03-04T09:39:19.497Z,71.27
2023-03-04T09:41:56.734Z,71.28
2023-03-04T09:44:51.483Z,70.76
2023-03-04T09:47:25.564Z,70.19
2023-03-04T09:50:04.192Z,69.16
2023-03-04T09:53:11.744Z,69.49
2023-03-04T09:55:47.778Z,69.41
2023-03-04T09:58:59.736Z,69.92
2023-03-04T10:01:46.172Z,69.88
2023-03-04T10:04:52.821Z,69.64
2023-03-04T10:07:29.443Z,69.03
2023-03-04T10:10:15.693Z,69.59
2023-03-04T10:12:48.972Z,69.56
2023-03-04T10:15:41.710Z,69.84
2023-03-04T10:18:23.827Z,67.56
2023-03-04T10:21:01.495Z,67.73
2023-03-04T10:23:37.797Z,69.02
2023-03-04T10:26:21.009Z,69.48
2023-03-04T10:28:53.328Z,69.62
2023-03-04T10:31:37.986Z,69.58
2023-03-04T10:34:13.133Z,68.93
2023-03-04T10:37:03.258Z,68.40
2023-03-04T10:39:42.660Z,68.11
2023-03-04T10:42:22.753Z,69.12
2023-03-04T10:44:58.761Z,69.65
2023-03-04T10:47:55.604Z,69.12
2023-03-04T10:50:29.228Z,68.18
2023-03-04T10:53:01.717Z,68.24
2023-03-04T10:55:45.771Z,67.23
2023-03-04T10:58:19.428Z,65.81
2023-03-04T11:01:07.189Z,63.37
2023-03-04T11:03:40.951Z,62.14
2023-03-04T11:06:23.132Z,61.91
2023-03-04T11:08:58.988Z,61.05
2023-03-04T11:11:46.174Z,59.48
2023-03-04T11:14:31.134Z,58.78
2023-03-04T11:17:04.605Z,57.93
2023-03-04T11:19:41.113Z,58.44
2023-03-04T11:22:17.376Z,58.77
2023-03-04T11:25:06.452Z,58.99
2023-03-04T11:27:48.607Z,59.62
2023-03-04T11:30:38.010Z,59.81
2023-03-04T11:33:37.238Z,60.64
2023-03-04T11:36:20.380Z,61.50
2023-03-04T11:38:53.629Z,62.02
2023-03-04T11:41:40.073Z,62.51
2023-03-04T11:44:13.677Z,63.31
2023-03-04T11:46:53.888Z,64.00
2023-03-04T11:49:52.148Z,64.49
2023-03-04T11:53:00.298Z,64.37
2023-03-04T11:55:43.582Z,64.68
2023-03-04T11:58:48.409Z,65.18
2023-03-04T12:01:35.330Z,65.93
2023-03-04T12:04:29.325Z,66.12
2023-03-04T12:07:30.859Z,66.37
2023-03-04T12:10:33.052Z,65.19
2023-03-04T12:13:46.807Z,65.48
2023-03-04T12:16:52.606Z,65.98
2023-03-04T12:20:13.121Z,66.26
2023-03-04T12:22:59.879Z,67.15
2023-03-04T12:26:02.135Z,67.06
2023-03-04T12:29:18.402Z,66.41
2023-03-04T12:32:00.676Z,66.07
2023-03-04T12:35:05.336Z,66.41
2023-03-04T12:38:04.020Z,67.33
2023-03-04T12:41:19.483Z,66.31
2023-03-04T12:44:08.771Z,66.41
2023-03-04T12:47:09.927Z,66.53
2023-03-04T12:50:32.233Z,66.78
2023-03-04T12:53:41.480Z,66.95
2023-03-04T12:56:24.543Z,66.50
2023-03-04T12:58:56.817Z,66.15
2023-03-04T13:02:09.323Z,66.57
2023-03-04T13:05:05.678Z,66.75
2023-03-04T13:07:46.549Z,65.87
2023-03-04T13:10:21.852Z,65.82
2023-03-04T13:12:59.403Z,66.19
2023-03-04T13:15:39.187Z,66.60
2023-03-04T13:18:35.163Z,66.60
2023-03-04T13:21:28.985Z,66.02
2023-03-04T13:24:05.120Z,66.29
2023-03-04T13:26:37.558Z,66.06
2023-03-04T13:29:24.472Z,66.97
2023-03-04T13:32:07.897Z,67.01
2023-03-04T13:34:54.147Z,66.71
2023-03-04T13:37:37.298Z,67.37
2023-03-04T13:40:35.738Z,67.89
2023-03-04T13:43:29.923Z,67.91
2023-03-04T13:46:28.018Z,67.43
2023-03-04T13:49:03.959Z,67.04
2023-03-04T13:51:44.184Z,66.62
2023-03-04T13:54:31.988Z,66.93
2023-03-04T13:57:20.302Z,67.31
2023-03-04T13:59:58.625Z,67.43
2023-03-04T14:02:32.091Z,66.94
2023-03-04T14:05:04.419Z,67.24
2023-03-04T14:07:38.234Z,67.14
2023-03-04T14:10:16.733Z,66.81
2023-03-04T14:12:55.702Z,66.52
2023-03-04T14:15:29.856Z,66.53
2023-03-04T14:18:06.920Z,66.84
2023-03-04T14:20:42.798Z,66.81
2023-03-04T14:23:33.412Z,67.11
2023-03-04T14:26:15.162Z,67.36
2023-03-04T14:28:52.759Z,67.52
2023-03-04T14:31:30.922Z,67.14
2023-03-04T14:34:04.351Z,66.74
2023-03-04T14:36:37.464Z,66.87
2023-03-04T14:39:13.939Z,67.68
2023-03-04T14:41:47.285Z,67.70
2023-03-04T14:44:39.254Z,67.43
2023-03-04T14:47:39.379Z,67.24
2023-03-04T14:50:20.657Z,67.71
2023-03-04T14:53:11.863Z,68.24
2023-03-04T14:56:04.566Z,68.48
2023-03-04T14:58:39.185Z,68.43
2023-03-04T15:01:24.424Z,68.53
2023-03-04T15:04:09.604Z,68.12
2023-03-04T15:06:50.846Z,67.52
2023-03-04T15:09:26.648Z,67.08
2023-03-04T15:12:06.108Z,67.32
2023-03-04T15:14:54.710Z,67.72
2023-03-04T15:17:42.733Z,67.46
2023-03-04T15:20:23.587Z,67.26
2023-03-04T15:23:02.956Z,67.43
2023-03-04T15:25:35.569Z,68.14
2023-03-04T15:28:12.413Z,67.51
2023-03-04T15:30:44.967Z,67.33
2023-03-04T15:33:20.791Z,67.65
2023-03-04T15:35:59.495Z,67.57
2023-03-04T15:38:31.888Z,68.04
2023-03-04T15:41:05.177Z,67.98
2023-03-04T15:43:37.721Z,68.60
2023-03-04T15:46:12.783Z,68.38
2023-03-04T15:48:45.919Z,67.64
2023-03-04T15:51:23.774Z,67.63
2023-03-04T15:53:57.997Z,67.62
2023-03-04T15:56:34.814Z,67.82
2023-03-04T15:59:13.872Z,68.04
2023-03-04T16:01:46.873Z,68.82
2023-03-04T16:04:19.335Z,68.74
2023-03-04T16:06:51.765Z,68.83
2023-03-04T16:09:24.343Z,68.76
2023-03-04T16:11:58.527Z,69.11
2023-03-04T16:14:31.293Z,69.61
2023-03-04T16:17:03.760Z,69.37
2023-03-04T16:19:36.173Z,69.35
2023-03-04T16:22:10.595Z,69.21
2023-03-04T16:24:43.738Z,69.48
2023-03-04T16:27:16.947Z,69.76
2023-03-04T16:29:49.532Z,70.04
2023-03-04T16:32:21.974Z,70.72
2023-03-04T16:34:54.587Z,70.36
2023-03-04T16:37:27.037Z,70.71
2023-03-04T16:40:00.407Z,70.75
2023-03-04T16:42:34.759Z,71.11
2023-03-04T16:45:07.731Z,71.30
2023-03-04T16:47:40.159Z,70.92
2023-03-04T16:50:23.872Z,71.89
2023-03-04T16:52:57.977Z,71.74
2023-03-04T16:55:31.156Z,72.10
2023-03-04T16:58:05.476Z,72.16
2023-03-04T17:00:40.026Z,72.16
2023-03-04T17:03:12.727Z,72.50
2023-03-04T17:05:45.596Z,73.05
2023-03-04T17:08:18.803Z,72.81
2023-03-04T17:10:52.761Z,73.14
2023-03-04T17:13:25.749Z,73.69
2023-03-04T17:16:04.409Z,73.43
2023-03-04T17:18:37.784Z,73.63
2023-03-04T17:21:13.570Z,73.94
2023-03-04T17:23:46.082Z,74.19
2023-03-04T17:26:20.186Z,74.59
2023-03-04T17:28:52.853Z,74.76
2023-03-04T17:31:25.329Z,75.23
2023-03-04T17:33:58.463Z,75.64
2023-03-04T17:36:30.964Z,75.38
2023-03-04T17:39:05.435Z,75.31
2023-03-04T17:41:38.732Z,75.62
2023-03-04T17:44:12.356Z,75.59
2023-03-04T17:46:45.875Z,75.51
2023-03-04T17:49:18.434Z,75.68
2023-03-04T17:51:51.660Z,75.86
2023-03-04T17:54:24.179Z,76.27
2023-03-04T17:56:56.543Z,76.37
2023-03-04T17:59:29.074Z,76.61
2023-03-04T18:02:02.876Z,77.01
2023-03-04T18:04:36.392Z,77.45
2023-03-04T18:07:09.751Z,78.11
2023-03-04T18:09:44.632Z,78.10
2023-03-04T18:12:17.063Z,78.27
2023-03-04T18:14:50.218Z,78.27
2023-03-04T18:17:22.936Z,78.38
2023-03-04T18:19:56.820Z,78.58
2023-03-04T18:22:29.323Z,78.66
2023-03-04T18:25:02.297Z,78.88
2023-03-04T18:27:35.652Z,78.82
2023-03-04T18:30:15.864Z,78.80
2023-03-04T18:32:52.254Z,78.76
2023-03-04T18:35:23.305Z,78.69
2023-03-04T18:37:56.676Z,78.56
2023-03-04T18:40:29.750Z,78.24
2023-03-04T18:43:03.078Z,78.19
2023-03-04T18:45:36.943Z,78.12
2023-03-04T18:48:09.511Z,77.97
2023-03-04T18:50:43.172Z,77.85
2023-03-04T18:53:16.434Z,77.87
2023-03-04T18:55:49.228Z,77.77
2023-03-04T18:58:21.652Z,77.86
2023-03-04T19:00:54.963Z,77.77
2023-03-04T19:03:27.408Z,77.79
2023-03-04T19:06:00.565Z,78.16
2023-03-04T19:08:33.647Z,77.71
2023-03-04T19:11:07.452Z,77.31
2023-03-04T19:13:40.573Z,77.15
2023-03-04T19:16:13.463Z,76.91
2023-03-04T19:18:45.928Z,76.91
2023-03-04T19:21:19.294Z,76.66
2023-03-04T19:23:51.826Z,76.82
2023-03-04T19:26:24.867Z,77.04
2023-03-04T19:28:57.323Z,77.74
2023-03-04T19:31:29.774Z,77.78
2023-03-04T19:34:02.576Z,77.92
2023-03-04T19:36:35.161Z,78.19
2023-03-04T19:39:07.654Z,78.42
2023-03-04T19:41:41.248Z,78.47
2023-03-04T19:44:14.833Z,79.21
2023-03-04T19:46:48.211Z,78.76
2023-03-04T19:49:21.388Z,78.80
2023-03-04T19:51:54.433Z,78.88
2023-03-04T19:54:26.745Z,80.13
2023-03-04T19:56:59.899Z,79.50
2023-03-04T19:59:32.963Z,79.25
2023-03-04T20:02:05.933Z,79.39
2023-03-04T20:04:38.850Z,79.73
2023-03-04T20:07:12.726Z,79.70
2023-03-04T20:09:46.350Z,79.85
2023-03-04T20:12:19.178Z,80.22
2023-03-04T20:14:52.525Z,80.20
2023-03-04T20:17:25.354Z,80.04
2023-03-04T20:19:57.817Z,79.97
2023-03-04T20:22:30.578Z,80.12
2023-03-04T20:25:02.912Z,80.15
2023-03-04T20:27:36.880Z,79.65
2023-03-04T20:30:10.970Z,79.55
2023-03-04T20:32:43.171Z,79.80
2023-03-04T20:35:15.981Z,80.30
2023-03-04T20:37:48.479Z,80.87
2023-03-04T20:40:21.541Z,85.71
2023-03-04T20:42:54.146Z,92.45
2023-03-04T20:45:26.554Z,96.57
2023-03-04T20:47:59.255Z,99.59
2023-03-04T20:50:32.280Z,100.00
2023-03-04T20:53:04.932Z,100.00
2023-03-04T20:55:37.266Z,100.00
2023-03-04T20:58:09.840Z,100.00
2023-03-04T21:00:42.270Z,100.00
2023-03-04T21:03:15.263Z,100.00
2023-03-04T21:05:48.444Z,100.00
2023-03-04T21:08:20.764Z,100.00
2023-03-04T21:10:53.302Z,100.00
2023-03-04T21:13:27.318Z,100.00
2023-03-04T21:16:00.832Z,100.00
2023-03-04T21:18:33.742Z,99.93
2023-03-04T21:21:16.961Z,98.80
2023-03-04T21:23:52.980Z,98.92
2023-03-04T21:26:25.726Z,98.43
2023-03-04T21:28:58.722Z,95.78
2023-03-04T21:31:32.345Z,95.46
2023-03-04T21:34:04.933Z,92.56
2023-03-04T21:36:37.350Z,89.85
2023-03-04T21:39:16.608Z,88.91
2023-03-04T21:41:49.542Z,87.37
2023-03-04T21:44:28.772Z,84.28
2023-03-04T21:47:00.725Z,80.15
2023-03-04T21:49:33.382Z,76.25
2023-03-04T21:52:06.540Z,74.45
2023-03-04T21:54:39.401Z,74.05
2023-03-04T21:57:13.648Z,71.91
2023-03-04T21:59:45.999Z,72.03
2023-03-04T22:02:21.385Z,71.52
2023-03-04T22:04:54.490Z,71.72
2023-03-04T22:07:26.776Z,70.98
2023-03-04T22:09:59.884Z,68.70
2023-03-04T22:12:33.376Z,69.17
2023-03-04T22:15:06.933Z,67.97
2023-03-04T22:17:39.686Z,66.54
2023-03-04T22:20:14.833Z,65.96
2023-03-04T22:22:48.891Z,65.85
2023-03-04T22:25:21.340Z,66.42
2023-03-04T22:27:53.783Z,66.48
2023-03-04T22:30:26.202Z,67.31
2023-03-04T22:32:58.651Z,67.27
2023-03-04T22:35:31.325Z,66.18
2023-03-04T22:38:03.786Z,66.69
2023-03-04T22:40:36.796Z,67.53
2023-03-04T22:43:09.340Z,67.87
2023-03-04T22:45:41.837Z,66.82
2023-03-04T22:48:14.720Z,66.58
2023-03-04T22:50:47.431Z,67.68
2023-03-04T22:53:20.243Z,67.86
2023-03-04T22:55:57.665Z,68.54
2023-03-04T22:58:30.745Z,67.53
2023-03-04T23:01:04.438Z,66.91
2023-03-04T23:03:37.940Z,67.19
2023-03-04T23:06:16.822Z,65.50
2023-03-04T23:08:50.986Z,65.66
2023-03-04T23:11:37.029Z,66.26
2023-03-04T23:14:09.642Z,65.73
2023-03-04T23:16:44.505Z,65.43
2023-03-04T23:19:17.972Z,63.80
2023-03-04T23:21:51.280Z,64.42
2023-03-04T23:24:25.706Z,63.89
2023-03-04T23:26:57.734Z,63.45
2023-03-04T23:29:29.887Z,62.79
2023-03-04T23:32:02.233Z,62.38
2023-03-04T23:34:36.775Z,62.20
2023-03-04T23:37:09.105Z,61.55
2023-03-04T23:39:41.605Z,63.33
2023-03-04T23:42:14.466Z,62.58
2023-03-04T23:44:46.964Z,62.53
2023-03-04T23:47:19.295Z,62.90
2023-03-04T23:49:51.908Z,62.40
2023-03-04T23:52:24.401Z,62.02
2023-03-04T23:54:56.857Z,61.58
2023-03-04T23:57:29.110Z,61.64
